sensor_id;sensor_type;location;lat;lon;timestamp;temperature;humidity
19385;DHT22;9828;54.122;17.974;2022-08-01T00:01:24;16.20;1.00
19385;DHT22;9828;54.122;17.974;2022-08-01T00:06:45;16.00;1.00
19385;DHT22;9828;54.122;17.974;2022-08-01T00:12:06;16.00;1.00
19385;DHT22;9828;54.122;17.974;2022-08-01T00:17:28;15.90;1.00
19385;DHT22;9828;54.122;17.974;2022-08-01T00:22:49;15.80;1.00
19385;DHT22;9828;54.122;17.974;2022-08-01T00:28:11;15.70;1.00
19385;DHT22;9828;54.122;17.974;2022-08-01T00:33:34;15.70;1.00
19385;DHT22;9828;54.122;17.974;2022-08-01T00:38:55;15.60;1.00
19385;DHT22;9828;54.122;17.974;2022-08-01T00:44:17;15.50;1.00
19385;DHT22;9828;54.122;17.974;2022-08-01T00:49:38;15.50;1.00
19385;DHT22;9828;54.122;17.974;2022-08-01T00:55:00;15.40;1.00
19385;DHT22;9828;54.122;17.974;2022-08-01T01:00:22;15.40;1.00
19385;DHT22;9828;54.122;17.974;2022-08-01T01:05:51;15.20;1.00
19385;DHT22;9828;54.122;17.974;2022-08-01T01:11:25;15.00;1.00
19385;DHT22;9828;54.122;17.974;2022-08-01T01:16:47;14.90;1.00
19385;DHT22;9828;54.122;17.974;2022-08-01T01:22:45;15.00;1.00
19385;DHT22;9828;54.122;17.974;2022-08-01T01:28:30;15.00;1.00
19385;DHT22;9828;54.122;17.974;2022-08-01T01:33:55;15.00;1.00
19385;DHT22;9828;54.122;17.974;2022-08-01T01:39:20;14.90;1.00
19385;DHT22;9828;54.122;17.974;2022-08-01T01:44:44;14.80;1.00
19385;DHT22;9828;54.122;17.974;2022-08-01T01:50:07;14.80;1.00
19385;DHT22;9828;54.122;17.974;2022-08-01T01:55:29;14.90;1.00
19385;DHT22;9828;54.122;17.974;2022-08-01T02:00:52;14.80;1.00
19385;DHT22;9828;54.122;17.974;2022-08-01T02:06:16;14.80;1.00
19385;DHT22;9828;54.122;17.974;2022-08-01T02:11:38;14.80;1.00
19385;DHT22;9828;54.122;17.974;2022-08-01T02:17:01;14.80;1.00
19385;DHT22;9828;54.122;17.974;2022-08-01T02:22:32;14.80;1.00
19385;DHT22;9828;54.122;17.974;2022-08-01T02:28:07;14.70;1.00
19385;DHT22;9828;54.122;17.974;2022-08-01T02:33:43;14.70;1.00
19385;DHT22;9828;54.122;17.974;2022-08-01T02:39:10;14.50;1.00
19385;DHT22;9828;54.122;17.974;2022-08-01T02:44:36;14.40;1.00
19385;DHT22;9828;54.122;17.974;2022-08-01T02:50:00;14.40;1.00
19385;DHT22;9828;54.122;17.974;2022-08-01T02:55:23;14.50;1.00
19385;DHT22;9828;54.122;17.974;2022-08-01T03:00:46;14.40;1.00
19385;DHT22;9828;54.122;17.974;2022-08-01T03:06:08;14.40;1.00
19385;DHT22;9828;54.122;17.974;2022-08-01T03:11:31;14.30;1.00
19385;DHT22;9828;54.122;17.974;2022-08-01T03:16:54;14.40;1.00
19385;DHT22;9828;54.122;17.974;2022-08-01T03:22:17;14.50;1.00
19385;DHT22;9828;54.122;17.974;2022-08-01T03:27:40;14.50;1.00
19385;DHT22;9828;54.122;17.974;2022-08-01T03:33:03;14.50;1.00
19385;DHT22;9828;54.122;17.974;2022-08-01T03:38:27;14.60;1.00
19385;DHT22;9828;54.122;17.974;2022-08-01T03:44:15;14.60;1.00
19385;DHT22;9828;54.122;17.974;2022-08-01T03:49:47;14.70;1.00
19385;DHT22;9828;54.122;17.974;2022-08-01T03:55:11;14.70;1.00
19385;DHT22;9828;54.122;17.974;2022-08-01T04:00:32;14.80;1.00
19385;DHT22;9828;54.122;17.974;2022-08-01T04:05:54;14.90;1.00
19385;DHT22;9828;54.122;17.974;2022-08-01T04:11:16;14.90;1.00
19385;DHT22;9828;54.122;17.974;2022-08-01T04:16:37;15.00;1.00
19385;DHT22;9828;54.122;17.974;2022-08-01T04:21:59;15.00;1.00
19385;DHT22;9828;54.122;17.974;2022-08-01T04:27:27;15.30;1.00
19385;DHT22;9828;54.122;17.974;2022-08-01T04:32:54;15.30;1.00
19385;DHT22;9828;54.122;17.974;2022-08-01T04:38:19;15.40;1.00
19385;DHT22;9828;54.122;17.974;2022-08-01T04:43:42;15.40;1.00
19385;DHT22;9828;54.122;17.974;2022-08-01T04:49:08;15.50;1.00
19385;DHT22;9828;54.122;17.974;2022-08-01T04:54:36;15.70;1.00
19385;DHT22;9828;54.122;17.974;2022-08-01T04:59:59;15.90;1.00
19385;DHT22;9828;54.122;17.974;2022-08-01T05:05:23;16.10;1.00
19385;DHT22;9828;54.122;17.974;2022-08-01T05:10:47;16.20;1.00
19385;DHT22;9828;54.122;17.974;2022-08-01T05:16:08;16.50;1.00
19385;DHT22;9828;54.122;17.974;2022-08-01T05:21:30;16.70;1.00
19385;DHT22;9828;54.122;17.974;2022-08-01T05:26:51;16.90;1.00
19385;DHT22;9828;54.122;17.974;2022-08-01T05:32:13;17.10;1.00
19385;DHT22;9828;54.122;17.974;2022-08-01T05:37:34;17.30;1.00
19385;DHT22;9828;54.122;17.974;2022-08-01T05:42:55;17.60;1.00
19385;DHT22;9828;54.122;17.974;2022-08-01T05:48:17;18.10;1.00
19385;DHT22;9828;54.122;17.974;2022-08-01T05:53:38;18.50;99.90
19385;DHT22;9828;54.122;17.974;2022-08-01T05:59:00;19.00;1.00
19385;DHT22;9828;54.122;17.974;2022-08-01T06:04:21;19.40;1.00
19385;DHT22;9828;54.122;17.974;2022-08-01T06:09:43;19.70;99.90
19385;DHT22;9828;54.122;17.974;2022-08-01T06:15:10;20.00;99.90
19385;DHT22;9828;54.122;17.974;2022-08-01T06:20:32;20.30;1.00
19385;DHT22;9828;54.122;17.974;2022-08-01T06:25:54;20.50;99.90
19385;DHT22;9828;54.122;17.974;2022-08-01T06:31:19;20.50;1.00
19385;DHT22;9828;54.122;17.974;2022-08-01T06:36:43;20.70;1.00
19385;DHT22;9828;54.122;17.974;2022-08-01T06:42:14;20.90;1.00
19385;DHT22;9828;54.122;17.974;2022-08-01T06:47:37;21.00;99.90
19385;DHT22;9828;54.122;17.974;2022-08-01T06:52:58;21.20;1.00
19385;DHT22;9828;54.122;17.974;2022-08-01T06:58:20;21.40;99.90
19385;DHT22;9828;54.122;17.974;2022-08-01T07:09:03;21.50;99.90
19385;DHT22;9828;54.122;17.974;2022-08-01T07:14:28;21.70;99.90
19385;DHT22;9828;54.122;17.974;2022-08-01T07:19:50;22.20;99.90
19385;DHT22;9828;54.122;17.974;2022-08-01T07:25:12;22.40;92.90
19385;DHT22;9828;54.122;17.974;2022-08-01T07:30:33;22.70;1.00
19385;DHT22;9828;54.122;17.974;2022-08-01T07:35:55;22.80;1.00
19385;DHT22;9828;54.122;17.974;2022-08-01T07:41:16;23.10;1.00
19385;DHT22;9828;54.122;17.974;2022-08-01T07:46:38;24.40;60.40
19385;DHT22;9828;54.122;17.974;2022-08-01T07:51:59;25.60;1.00
19385;DHT22;9828;54.122;17.974;2022-08-01T07:57:21;26.50;1.00
19385;DHT22;9828;54.122;17.974;2022-08-01T08:02:42;27.10;1.00
19385;DHT22;9828;54.122;17.974;2022-08-01T08:08:05;27.30;99.90
19385;DHT22;9828;54.122;17.974;2022-08-01T08:13:27;27.50;99.90
19385;DHT22;9828;54.122;17.974;2022-08-01T08:18:48;27.80;99.90
19385;DHT22;9828;54.122;17.974;2022-08-01T08:24:10;28.20;5.90
19385;DHT22;9828;54.122;17.974;2022-08-01T08:29:41;28.50;1.00
19385;DHT22;9828;54.122;17.974;2022-08-01T08:35:04;28.90;1.00
19385;DHT22;9828;54.122;17.974;2022-08-01T08:40:29;29.00;1.00
19385;DHT22;9828;54.122;17.974;2022-08-01T08:45:52;29.30;1.00
19385;DHT22;9828;54.122;17.974;2022-08-01T08:51:14;29.70;1.00
19385;DHT22;9828;54.122;17.974;2022-08-01T08:56:39;29.90;1.00
19385;DHT22;9828;54.122;17.974;2022-08-01T09:02:01;30.30;1.00
19385;DHT22;9828;54.122;17.974;2022-08-01T09:07:22;30.70;1.00
19385;DHT22;9828;54.122;17.974;2022-08-01T09:18:30;31.60;99.90
19385;DHT22;9828;54.122;17.974;2022-08-01T09:23:54;31.80;99.90
19385;DHT22;9828;54.122;17.974;2022-08-01T09:29:24;32.20;99.90
19385;DHT22;9828;54.122;17.974;2022-08-01T09:34:46;32.10;99.90
19385;DHT22;9828;54.122;17.974;2022-08-01T09:40:08;31.60;99.90
19385;DHT22;9828;54.122;17.974;2022-08-01T09:45:33;31.20;99.90
19385;DHT22;9828;54.122;17.974;2022-08-01T09:50:57;30.60;99.90
19385;DHT22;9828;54.122;17.974;2022-08-01T09:56:20;30.30;99.90
19385;DHT22;9828;54.122;17.974;2022-08-01T10:01:47;30.40;99.90
19385;DHT22;9828;54.122;17.974;2022-08-01T10:07:08;30.70;99.90
19385;DHT22;9828;54.122;17.974;2022-08-01T10:12:32;31.30;99.90
19385;DHT22;9828;54.122;17.974;2022-08-01T10:17:56;31.60;99.90
19385;DHT22;9828;54.122;17.974;2022-08-01T10:23:18;31.40;99.90
19385;DHT22;9828;54.122;17.974;2022-08-01T10:28:40;31.00;99.90
19385;DHT22;9828;54.122;17.974;2022-08-01T10:34:02;30.60;99.90
19385;DHT22;9828;54.122;17.974;2022-08-01T10:39:25;29.80;99.90
19385;DHT22;9828;54.122;17.974;2022-08-01T10:44:49;29.60;99.90
19385;DHT22;9828;54.122;17.974;2022-08-01T10:50:32;30.20;99.90
19385;DHT22;9828;54.122;17.974;2022-08-01T10:55:58;30.60;99.90
19385;DHT22;9828;54.122;17.974;2022-08-01T11:01:26;31.10;99.90
19385;DHT22;9828;54.122;17.974;2022-08-01T11:07:16;31.30;99.90
19385;DHT22;9828;54.122;17.974;2022-08-01T11:12:41;30.50;99.90
19385;DHT22;9828;54.122;17.974;2022-08-01T11:23:50;29.50;99.90
19385;DHT22;9828;54.122;17.974;2022-08-01T11:29:16;29.50;99.90
19385;DHT22;9828;54.122;17.974;2022-08-01T11:34:53;29.70;99.90
19385;DHT22;9828;54.122;17.974;2022-08-01T11:40:26;29.80;99.90
19385;DHT22;9828;54.122;17.974;2022-08-01T11:45:53;29.40;99.90
19385;DHT22;9828;54.122;17.974;2022-08-01T11:51:19;29.00;99.90
19385;DHT22;9828;54.122;17.974;2022-08-01T11:56:45;28.70;99.90
19385;DHT22;9828;54.122;17.974;2022-08-01T12:02:26;29.10;99.90
19385;DHT22;9828;54.122;17.974;2022-08-01T12:07:52;29.80;99.90
19385;DHT22;9828;54.122;17.974;2022-08-01T12:13:14;30.00;99.90
19385;DHT22;9828;54.122;17.974;2022-08-01T12:18:42;29.50;99.90
19385;DHT22;9828;54.122;17.974;2022-08-01T12:24:04;29.30;99.90
19385;DHT22;9828;54.122;17.974;2022-08-01T12:29:42;29.20;99.90
19385;DHT22;9828;54.122;17.974;2022-08-01T12:35:27;29.20;99.90
19385;DHT22;9828;54.122;17.974;2022-08-01T12:40:49;29.20;99.90
19385;DHT22;9828;54.122;17.974;2022-08-01T12:46:10;28.90;99.90
19385;DHT22;9828;54.122;17.974;2022-08-01T12:51:36;28.50;99.90
19385;DHT22;9828;54.122;17.974;2022-08-01T12:56:58;28.20;99.90
19385;DHT22;9828;54.122;17.974;2022-08-01T13:02:19;28.00;99.90
19385;DHT22;9828;54.122;17.974;2022-08-01T13:13:07;28.10;99.90
19385;DHT22;9828;54.122;17.974;2022-08-01T13:18:30;28.20;99.90
19385;DHT22;9828;54.122;17.974;2022-08-01T13:24:02;28.10;99.90
19385;DHT22;9828;54.122;17.974;2022-08-01T13:29:36;28.10;99.90
19385;DHT22;9828;54.122;17.974;2022-08-01T13:35:07;28.00;99.90
19385;DHT22;9828;54.122;17.974;2022-08-01T13:40:29;28.00;99.90
19385;DHT22;9828;54.122;17.974;2022-08-01T13:45:51;27.90;99.90
19385;DHT22;9828;54.122;17.974;2022-08-01T13:51:12;27.70;99.90
19385;DHT22;9828;54.122;17.974;2022-08-01T13:56:41;27.70;99.90
19385;DHT22;9828;54.122;17.974;2022-08-01T14:02:03;27.70;99.90
19385;DHT22;9828;54.122;17.974;2022-08-01T14:07:25;27.80;99.90
19385;DHT22;9828;54.122;17.974;2022-08-01T14:12:49;27.70;99.90
19385;DHT22;9828;54.122;17.974;2022-08-01T14:18:10;27.50;99.90
19385;DHT22;9828;54.122;17.974;2022-08-01T14:23:34;27.30;99.90
19385;DHT22;9828;54.122;17.974;2022-08-01T14:28:56;27.20;99.90
19385;DHT22;9828;54.122;17.974;2022-08-01T14:34:17;26.90;99.90
19385;DHT22;9828;54.122;17.974;2022-08-01T14:39:39;26.90;99.90
19385;DHT22;9828;54.122;17.974;2022-08-01T14:45:00;26.90;99.90
19385;DHT22;9828;54.122;17.974;2022-08-01T14:50:22;26.90;99.90
19385;DHT22;9828;54.122;17.974;2022-08-01T14:55:44;27.00;99.90
19385;DHT22;9828;54.122;17.974;2022-08-01T15:01:06;26.90;99.90
19385;DHT22;9828;54.122;17.974;2022-08-01T15:06:27;26.70;99.90
19385;DHT22;9828;54.122;17.974;2022-08-01T15:11:48;26.50;99.90
19385;DHT22;9828;54.122;17.974;2022-08-01T15:17:10;26.30;99.90
19385;DHT22;9828;54.122;17.974;2022-08-01T15:22:34;26.10;99.90
19385;DHT22;9828;54.122;17.974;2022-08-01T15:27:55;26.00;99.90
19385;DHT22;9828;54.122;17.974;2022-08-01T15:33:16;26.00;99.90
19385;DHT22;9828;54.122;17.974;2022-08-01T15:38:38;25.80;99.90
19385;DHT22;9828;54.122;17.974;2022-08-01T15:43:59;25.90;99.90
19385;DHT22;9828;54.122;17.974;2022-08-01T15:49:21;25.80;99.90
19385;DHT22;9828;54.122;17.974;2022-08-01T15:54:43;25.90;99.90
19385;DHT22;9828;54.122;17.974;2022-08-01T16:00:05;25.90;99.90
19385;DHT22;9828;54.122;17.974;2022-08-01T16:05:31;25.80;99.90
19385;DHT22;9828;54.122;17.974;2022-08-01T16:10:52;25.80;99.90
19385;DHT22;9828;54.122;17.974;2022-08-01T16:16:14;25.70;99.90
19385;DHT22;9828;54.122;17.974;2022-08-01T16:21:39;25.60;99.90
19385;DHT22;9828;54.122;17.974;2022-08-01T16:27:01;25.50;99.90
19385;DHT22;9828;54.122;17.974;2022-08-01T16:32:22;25.50;99.90
19385;DHT22;9828;54.122;17.974;2022-08-01T16:37:44;25.60;99.90
19385;DHT22;9828;54.122;17.974;2022-08-01T16:43:05;25.60;99.90
19385;DHT22;9828;54.122;17.974;2022-08-01T16:48:26;25.60;99.90
19385;DHT22;9828;54.122;17.974;2022-08-01T16:53:48;25.70;99.90
19385;DHT22;9828;54.122;17.974;2022-08-01T16:59:09;25.50;99.90
19385;DHT22;9828;54.122;17.974;2022-08-01T17:04:31;25.30;1.00
19385;DHT22;9828;54.122;17.974;2022-08-01T17:09:52;25.10;1.00
19385;DHT22;9828;54.122;17.974;2022-08-01T17:15:14;25.00;1.00
19385;DHT22;9828;54.122;17.974;2022-08-01T17:20:35;25.00;1.00
19385;DHT22;9828;54.122;17.974;2022-08-01T17:25:57;24.80;1.00
19385;DHT22;9828;54.122;17.974;2022-08-01T17:31:18;24.70;1.00
19385;DHT22;9828;54.122;17.974;2022-08-01T17:36:41;24.60;1.00
19385;DHT22;9828;54.122;17.974;2022-08-01T17:42:02;24.50;1.00
19385;DHT22;9828;54.122;17.974;2022-08-01T17:47:24;24.40;1.00
19385;DHT22;9828;54.122;17.974;2022-08-01T17:53:00;24.30;1.00
19385;DHT22;9828;54.122;17.974;2022-08-01T17:58:22;24.10;1.00
19385;DHT22;9828;54.122;17.974;2022-08-01T18:03:44;24.00;1.00
19385;DHT22;9828;54.122;17.974;2022-08-01T18:09:05;23.80;1.00
19385;DHT22;9828;54.122;17.974;2022-08-01T18:14:29;23.70;1.00
19385;DHT22;9828;54.122;17.974;2022-08-01T18:19:51;23.60;1.00
19385;DHT22;9828;54.122;17.974;2022-08-01T18:46:39;23.20;45.20
19385;DHT22;9828;54.122;17.974;2022-08-01T18:52:01;23.00;99.90
19385;DHT22;9828;54.122;17.974;2022-08-01T18:57:23;22.80;99.90
19385;DHT22;9828;54.122;17.974;2022-08-01T19:02:44;22.70;99.90
19385;DHT22;9828;54.122;17.974;2022-08-01T19:08:05;22.50;1.00
19385;DHT22;9828;54.122;17.974;2022-08-01T19:13:27;22.50;1.00
19385;DHT22;9828;54.122;17.974;2022-08-01T19:18:49;22.40;1.00
19385;DHT22;9828;54.122;17.974;2022-08-01T19:24:11;22.20;1.00
19385;DHT22;9828;54.122;17.974;2022-08-01T19:29:38;22.10;1.00
19385;DHT22;9828;54.122;17.974;2022-08-01T19:35:05;22.00;1.00
19385;DHT22;9828;54.122;17.974;2022-08-01T19:40:27;22.00;1.00
19385;DHT22;9828;54.122;17.974;2022-08-01T19:45:50;21.90;3.70
19385;DHT22;9828;54.122;17.974;2022-08-01T19:51:15;21.80;99.90
19385;DHT22;9828;54.122;17.974;2022-08-01T19:56:38;21.80;99.90
19385;DHT22;9828;54.122;17.974;2022-08-01T20:02:02;21.60;1.00
19385;DHT22;9828;54.122;17.974;2022-08-01T20:07:23;21.60;1.00
19385;DHT22;9828;54.122;17.974;2022-08-01T20:12:45;21.50;1.00
19385;DHT22;9828;54.122;17.974;2022-08-01T20:18:07;21.50;1.00
19385;DHT22;9828;54.122;17.974;2022-08-01T20:23:30;21.40;48.00
19385;DHT22;9828;54.122;17.974;2022-08-01T20:28:52;21.40;43.80
19385;DHT22;9828;54.122;17.974;2022-08-01T20:34:16;21.40;99.90
19385;DHT22;9828;54.122;17.974;2022-08-01T20:39:41;21.20;1.00
19385;DHT22;9828;54.122;17.974;2022-08-01T20:45:04;21.00;1.00
19385;DHT22;9828;54.122;17.974;2022-08-01T20:50:26;20.90;1.00
19385;DHT22;9828;54.122;17.974;2022-08-01T20:56:09;20.90;1.00
19385;DHT22;9828;54.122;17.974;2022-08-01T21:01:43;20.80;1.00
19385;DHT22;9828;54.122;17.974;2022-08-01T21:07:28;20.80;1.00
19385;DHT22;9828;54.122;17.974;2022-08-01T21:18:36;20.70;1.00
19385;DHT22;9828;54.122;17.974;2022-08-01T21:24:07;20.60;1.00
19385;DHT22;9828;54.122;17.974;2022-08-01T21:29:31;20.60;1.00
19385;DHT22;9828;54.122;17.974;2022-08-01T21:34:55;20.60;1.00
19385;DHT22;9828;54.122;17.974;2022-08-01T21:40:20;20.60;1.00
19385;DHT22;9828;54.122;17.974;2022-08-01T21:45:42;20.50;1.00
19385;DHT22;9828;54.122;17.974;2022-08-01T22:02:34;20.40;99.90
19385;DHT22;9828;54.122;17.974;2022-08-01T22:08:02;20.40;1.00
19385;DHT22;9828;54.122;17.974;2022-08-01T22:13:24;20.40;1.00
19385;DHT22;9828;54.122;17.974;2022-08-01T22:18:46;20.30;1.00
19385;DHT22;9828;54.122;17.974;2022-08-01T22:24:08;20.20;1.00
19385;DHT22;9828;54.122;17.974;2022-08-01T22:29:30;20.20;99.90
19385;DHT22;9828;54.122;17.974;2022-08-01T22:40:14;20.10;99.90
19385;DHT22;9828;54.122;17.974;2022-08-01T22:45:50;20.10;1.00
19385;DHT22;9828;54.122;17.974;2022-08-01T22:51:25;20.00;97.30
19385;DHT22;9828;54.122;17.974;2022-08-01T22:56:54;20.00;99.90
19385;DHT22;9828;54.122;17.974;2022-08-01T23:02:16;20.00;99.90
19385;DHT22;9828;54.122;17.974;2022-08-01T23:07:47;19.90;99.90
19385;DHT22;9828;54.122;17.974;2022-08-01T23:13:10;19.80;99.90
19385;DHT22;9828;54.122;17.974;2022-08-01T23:18:31;19.80;1.00
19385;DHT22;9828;54.122;17.974;2022-08-01T23:23:54;19.80;1.00
19385;DHT22;9828;54.122;17.974;2022-08-01T23:29:16;19.80;1.00
19385;DHT22;9828;54.122;17.974;2022-08-01T23:34:37;19.70;1.00
19385;DHT22;9828;54.122;17.974;2022-08-01T23:39:59;19.70;1.00
19385;DHT22;9828;54.122;17.974;2022-08-01T23:45:20;19.70;1.00
19385;DHT22;9828;54.122;17.974;2022-08-01T23:50:42;19.70;1.00
19385;DHT22;9828;54.122;17.974;2022-08-01T23:56:04;19.80;1.00
